createdAt,value
2019-02-20T00:00:31.684Z,20.10
2019-02-20T00:03:00.674Z,25.17
2019-02-20T00:05:28.758Z,23.60
2019-02-20T00:07:57.219Z,19.80
2019-02-20T00:10:25.276Z,21.33
2019-02-20T00:12:53.366Z,18.90
2019-02-20T00:15:21.445Z,24.20
2019-02-20T00:17:50.219Z,25.37
2019-02-20T00:20:18.762Z,26.10
2019-02-20T00:22:46.847Z,22.30
2019-02-20T00:25:14.923Z,28.60
2019-02-20T00:27:43.026Z,24.33
2019-02-20T00:30:11.232Z,27.20
2019-02-20T00:32:39.486Z,23.47
2019-02-20T00:35:07.570Z,28.83
2019-02-20T00:37:38.699Z,28.97
2019-02-20T00:40:07.160Z,24.20
2019-02-20T00:42:35.382Z,28.80
2019-02-20T00:45:22.076Z,28.30
2019-02-20T00:48:12.545Z,27.57
2019-02-20T00:50:41.526Z,29.93
2019-02-20T00:53:17.878Z,25.60
2019-02-20T00:55:46.058Z,27.60
2019-02-20T00:58:14.163Z,28.67
2019-02-20T01:00:42.239Z,25.10
2019-02-20T01:03:11.105Z,28.07
2019-02-20T01:05:39.313Z,34.13
2019-02-20T01:08:07.709Z,28.77
2019-02-20T01:10:35.816Z,26.43
2019-02-20T01:13:04.238Z,22.60
2019-02-20T01:15:32.602Z,22.07
2019-02-20T01:18:00.956Z,26.37
2019-02-20T01:20:29.350Z,28.97
2019-02-20T01:22:59.889Z,23.87
2019-02-20T01:25:27.785Z,30.27
2019-02-20T01:27:55.994Z,31.83
2019-02-20T01:30:24.076Z,23.87
2019-02-20T01:32:52.212Z,22.90
2019-02-20T01:35:20.324Z,28.23
2019-02-20T01:37:48.448Z,27.43
2019-02-20T01:40:16.538Z,27.87
2019-02-20T01:42:44.705Z,28.03
2019-02-20T01:45:12.881Z,25.40
2019-02-20T01:47:40.952Z,20.83
2019-02-20T01:50:09.138Z,21.30
2019-02-20T01:52:37.561Z,23.23
2019-02-20T01:55:06.811Z,27.87
2019-02-20T01:57:34.972Z,26.27
2019-02-20T02:00:04.713Z,20.20
2019-02-20T02:02:32.761Z,20.30
2019-02-20T02:05:01.204Z,22.00
2019-02-20T02:07:29.479Z,30.70
2019-02-20T02:09:57.599Z,26.40
2019-02-20T02:12:25.675Z,27.10
2019-02-20T02:14:53.956Z,27.10
2019-02-20T02:17:22.099Z,30.70
2019-02-20T02:19:50.169Z,31.07
2019-02-20T02:22:18.411Z,24.53
2019-02-20T02:24:46.505Z,25.47
2019-02-20T02:27:14.589Z,30.77
2019-02-20T02:29:42.692Z,32.97
2019-02-20T02:32:10.925Z,29.33
2019-02-20T02:34:39.235Z,26.30
2019-02-20T02:37:08.915Z,27.10
2019-02-20T02:39:37.050Z,31.70
2019-02-20T02:42:05.349Z,25.43
2019-02-20T02:44:34.035Z,25.27
2019-02-20T02:47:02.253Z,25.70
2019-02-20T02:49:30.337Z,23.27
2019-02-20T02:51:58.488Z,26.83
2019-02-20T02:54:26.606Z,30.37
2019-02-20T02:56:54.699Z,28.20
2019-02-20T02:59:24.780Z,22.93
2019-02-20T03:01:52.974Z,25.93
2019-02-20T03:04:21.028Z,26.23
2019-02-20T03:06:49.905Z,29.57
2019-02-20T03:09:18.041Z,29.97
2019-02-20T03:11:46.217Z,32.73
2019-02-20T03:14:14.302Z,27.57
2019-02-20T03:16:42.421Z,31.17
2019-02-20T03:19:10.912Z,34.97
2019-02-20T03:21:40.392Z,31.00
2019-02-20T03:24:09.263Z,26.73
2019-02-20T03:26:37.451Z,38.70
2019-02-20T03:29:05.828Z,31.57
2019-02-20T03:31:34.232Z,28.60
2019-02-20T03:34:02.563Z,33.30
2019-02-20T03:36:30.706Z,32.30
2019-02-20T03:38:59.594Z,29.17
2019-02-20T03:41:27.719Z,27.40
2019-02-20T03:43:56.687Z,31.97
2019-02-20T03:46:24.869Z,39.37
2019-02-20T03:48:53.190Z,25.60
2019-02-20T03:51:21.264Z,29.23
2019-02-20T03:53:51.869Z,28.93
2019-02-20T03:56:19.633Z,31.00
2019-02-20T03:58:47.909Z,28.47
2019-02-20T04:01:16.136Z,28.53
2019-02-20T04:03:44.351Z,29.07
2019-02-20T04:06:12.563Z,32.00
2019-02-20T04:08:40.634Z,29.87
2019-02-20T04:11:08.771Z,32.63
2019-02-20T04:13:36.992Z,31.93
2019-02-20T04:16:05.525Z,21.03
2019-02-20T04:18:33.917Z,27.50
2019-02-20T04:21:02.104Z,27.00
2019-02-20T04:23:30.570Z,26.57
2019-02-20T04:25:59.281Z,24.60
2019-02-20T04:28:27.655Z,25.00
2019-02-20T04:30:55.842Z,25.03
2019-02-20T04:33:23.980Z,26.97
2019-02-20T04:35:52.149Z,21.57
2019-02-20T04:38:20.250Z,25.00
2019-02-20T04:40:48.750Z,23.50
2019-02-20T04:43:16.884Z,28.30
2019-02-20T04:45:45.316Z,25.30
2019-02-20T04:48:13.429Z,26.20
2019-02-20T04:50:41.991Z,28.30
2019-02-20T04:53:10.035Z,24.37
2019-02-20T04:55:38.280Z,25.03
2019-02-20T04:58:20.770Z,29.77
2019-02-20T05:00:48.969Z,26.63
2019-02-20T05:03:17.063Z,29.03
2019-02-20T05:05:45.104Z,25.43
2019-02-20T05:08:13.321Z,31.57
2019-02-20T05:10:41.503Z,25.30
2019-02-20T05:13:09.922Z,24.33
2019-02-20T05:15:38.034Z,25.23
2019-02-20T05:18:06.126Z,28.53
2019-02-20T05:20:34.571Z,23.77
2019-02-20T05:23:02.773Z,29.20
2019-02-20T05:25:32.386Z,26.00
2019-02-20T05:28:04.356Z,26.00
2019-02-20T05:30:32.565Z,27.13
2019-02-20T05:33:00.862Z,22.10
2019-02-20T05:35:28.971Z,29.13
2019-02-20T05:37:57.092Z,22.43
2019-02-20T05:40:25.454Z,22.80
2019-02-20T05:42:53.577Z,20.90
2019-02-20T05:45:21.933Z,27.47
2019-02-20T05:47:50.050Z,25.20
2019-02-20T05:50:18.349Z,28.47
2019-02-20T05:52:46.424Z,27.83
2019-02-20T05:55:14.813Z,25.83
2019-02-20T05:57:42.914Z,23.27
2019-02-20T06:00:11.245Z,27.13
2019-02-20T06:02:39.535Z,28.03
2019-02-20T06:05:07.907Z,25.90
2019-02-20T06:07:37.077Z,23.50
2019-02-20T06:10:07.195Z,23.10
2019-02-20T06:12:35.331Z,24.10
2019-02-20T06:15:03.920Z,28.67
2019-02-20T06:17:32.021Z,24.07
2019-02-20T06:20:00.519Z,24.80
2019-02-20T06:22:29.006Z,25.80
2019-02-20T06:24:57.190Z,21.57
2019-02-20T06:27:25.394Z,28.83
2019-02-20T06:29:53.739Z,24.50
2019-02-20T06:32:24.088Z,21.53
2019-02-20T06:34:54.253Z,25.90
2019-02-20T06:37:23.237Z,30.87
2019-02-20T06:39:52.108Z,26.20
2019-02-20T06:42:20.177Z,27.33
2019-02-20T06:44:48.843Z,24.40
2019-02-20T06:47:18.503Z,26.17
2019-02-20T06:49:46.687Z,31.00
2019-02-20T06:52:16.205Z,22.57
2019-02-20T06:54:53.303Z,30.90
2019-02-20T06:57:15.061Z,27.10
2019-02-20T06:59:43.143Z,23.57
2019-02-20T07:02:11.652Z,34.93
2019-02-20T07:04:59.405Z,23.03
2019-02-20T07:08:30.343Z,26.57
2019-02-20T07:11:29.818Z,27.47
2019-02-20T07:14:33.540Z,26.67
2019-02-20T07:17:37.959Z,29.60
2019-02-20T07:21:22.250Z,24.37
2019-02-20T07:24:52.342Z,28.70
2019-02-20T07:28:10.851Z,27.40
2019-02-20T07:30:38.913Z,29.73
2019-02-20T07:33:07.065Z,32.37
2019-02-20T07:35:35.168Z,26.97
2019-02-20T07:38:03.590Z,28.83
2019-02-20T07:40:31.942Z,32.07
2019-02-20T07:43:00.113Z,28.37
2019-02-20T07:45:28.739Z,28.27
2019-02-20T07:47:57.239Z,33.07
2019-02-20T07:50:27.674Z,28.57
2019-02-20T07:52:55.738Z,29.50
2019-02-20T07:55:23.887Z,26.90
2019-02-20T07:57:52.013Z,32.07
2019-02-20T08:00:20.412Z,29.30
2019-02-20T08:02:48.775Z,28.90
2019-02-20T08:05:17.330Z,27.80
2019-02-20T08:07:45.416Z,32.30
2019-02-20T08:10:13.895Z,32.57
2019-02-20T08:12:42.102Z,35.97
2019-02-20T08:15:17.319Z,28.57
2019-02-20T08:17:45.410Z,27.27
2019-02-20T08:20:13.814Z,35.60
2019-02-20T08:22:42.030Z,36.80
2019-02-20T08:25:10.697Z,35.13
2019-02-20T08:27:39.272Z,35.90
2019-02-20T08:30:12.284Z,36.03
2019-02-20T08:32:40.672Z,32.50
2019-02-20T08:35:09.557Z,37.17
2019-02-20T08:37:38.428Z,32.20
2019-02-20T08:40:10.275Z,31.47
2019-02-20T08:42:40.528Z,38.23
2019-02-20T08:45:11.790Z,29.70
2019-02-20T08:47:40.485Z,34.27
2019-02-20T08:50:10.355Z,43.60
2019-02-20T08:52:38.729Z,36.87
2019-02-20T08:55:07.425Z,34.97
2019-02-20T08:57:35.491Z,38.97
2019-02-20T09:00:07.459Z,37.97
2019-02-20T09:02:35.578Z,39.17
2019-02-20T09:05:04.501Z,37.73
2019-02-20T09:07:32.605Z,40.67
2019-02-20T09:10:00.709Z,35.83
2019-02-20T09:12:29.283Z,38.33
2019-02-20T09:14:57.429Z,37.40
2019-02-20T09:17:25.559Z,45.50
2019-02-20T09:19:54.020Z,38.60
2019-02-20T09:22:22.171Z,42.00
2019-02-20T09:24:50.441Z,38.40
2019-02-20T09:27:19.067Z,41.17
2019-02-20T09:29:47.149Z,48.60
2019-02-20T09:32:15.361Z,40.97
2019-02-20T09:34:43.798Z,40.77
2019-02-20T09:37:11.972Z,42.87
2019-02-20T09:39:40.249Z,45.97
2019-02-20T09:42:11.521Z,44.23
2019-02-20T09:44:48.804Z,45.83
2019-02-20T09:47:18.549Z,45.23
2019-02-20T09:50:05.157Z,41.17
2019-02-20T09:52:33.695Z,40.33
2019-02-20T09:55:02.076Z,38.63
2019-02-20T09:57:30.228Z,40.50
2019-02-20T09:59:58.491Z,45.47
2019-02-20T10:02:26.749Z,42.33
2019-02-20T10:04:56.652Z,38.63
2019-02-20T10:07:24.732Z,40.53
2019-02-20T10:09:53.835Z,42.50
2019-02-20T10:12:22.527Z,38.50
2019-02-20T10:14:50.609Z,37.77
2019-02-20T10:17:20.484Z,40.77
2019-02-20T10:19:48.741Z,45.50
2019-02-20T10:22:17.826Z,41.13
2019-02-20T10:24:45.956Z,44.33
2019-02-20T10:27:14.978Z,38.47
2019-02-20T10:29:43.150Z,37.27
2019-02-20T10:32:11.893Z,38.20
2019-02-20T10:34:40.225Z,34.93
2019-02-20T10:37:27.302Z,37.80
2019-02-20T10:40:09.357Z,36.87
2019-02-20T10:42:56.161Z,33.87
2019-02-20T10:45:24.357Z,36.17
2019-02-20T10:48:11.050Z,36.03
2019-02-20T10:50:40.939Z,46.10
2019-02-20T10:53:27.844Z,41.83
2019-02-20T10:55:56.116Z,40.47
2019-02-20T10:58:25.990Z,39.00
2019-02-20T11:00:56.159Z,44.03
2019-02-20T11:03:39.817Z,37.37
2019-02-20T11:06:08.112Z,47.93
2019-02-20T11:08:54.616Z,40.87
2019-02-20T11:11:38.311Z,39.00
2019-02-20T11:14:07.483Z,39.33
2019-02-20T11:16:37.486Z,39.53
2019-02-20T11:19:08.272Z,42.43
2019-02-20T11:21:54.882Z,40.07
2019-02-20T11:24:41.575Z,39.03
2019-02-20T11:27:28.335Z,38.33
2019-02-20T11:30:14.312Z,35.97
2019-02-20T11:33:01.050Z,35.30
2019-02-20T11:35:38.027Z,37.27
2019-02-20T11:38:24.771Z,33.43
2019-02-20T11:40:53.455Z,40.20
2019-02-20T11:43:21.537Z,28.73
2019-02-20T11:45:49.737Z,31.40
2019-02-20T11:48:18.104Z,33.87
2019-02-20T11:50:46.218Z,30.63
2019-02-20T11:53:16.858Z,29.07
2019-02-20T11:55:45.018Z,33.77
2019-02-20T11:58:13.406Z,23.23
2019-02-20T12:00:41.745Z,28.50
2019-02-20T12:03:09.881Z,24.53
2019-02-20T12:05:37.958Z,28.87
2019-02-20T12:08:06.747Z,26.13
2019-02-20T12:10:36.625Z,23.00
2019-02-20T12:13:05.515Z,26.63
2019-02-20T12:15:33.610Z,23.47
2019-02-20T12:18:01.667Z,24.27
2019-02-20T12:20:30.221Z,23.40
2019-02-20T12:22:58.357Z,28.87
2019-02-20T12:25:26.535Z,20.53
2019-02-20T12:27:54.619Z,21.90
2019-02-20T12:30:22.748Z,20.97
2019-02-20T12:32:51.200Z,22.87
2019-02-20T12:35:19.354Z,20.83
2019-02-20T12:37:47.474Z,22.90
2019-02-20T12:40:15.554Z,27.33
2019-02-20T12:42:43.958Z,20.33
2019-02-20T12:45:12.129Z,22.13
2019-02-20T12:47:40.248Z,23.00
2019-02-20T12:50:08.612Z,20.27
2019-02-20T12:52:36.710Z,20.03
2019-02-20T12:55:05.911Z,20.07
2019-02-20T12:57:35.506Z,21.90
2019-02-20T13:00:04.699Z,19.37
2019-02-20T13:02:33.888Z,19.70
2019-02-20T13:05:02.422Z,23.60
2019-02-20T13:07:30.737Z,20.87
2019-02-20T13:09:59.532Z,23.60
2019-02-20T13:12:27.723Z,15.20
2019-02-20T13:14:55.858Z,17.20
2019-02-20T13:17:24.064Z,18.37
2019-02-20T13:19:52.183Z,15.13
2019-02-20T13:22:20.374Z,17.27
2019-02-20T13:24:48.495Z,16.90
2019-02-20T13:27:22.647Z,20.27
2019-02-20T13:29:47.040Z,14.80
2019-02-20T13:32:16.814Z,12.80
2019-02-20T13:34:44.841Z,10.17
2019-02-20T13:37:13.050Z,10.07
2019-02-20T13:39:41.552Z,13.70
2019-02-20T13:42:09.724Z,15.57
2019-02-20T13:44:38.217Z,13.07
2019-02-20T13:47:06.523Z,14.10
2019-02-20T13:49:34.597Z,10.60
2019-02-20T13:52:03.338Z,13.13
2019-02-20T13:54:31.809Z,13.07
2019-02-20T13:57:02.194Z,11.17
2019-02-20T13:59:31.105Z,9.30
2019-02-20T14:01:59.183Z,10.30
2019-02-20T14:04:27.315Z,7.23
2019-02-20T14:06:55.940Z,18.63
2019-02-20T14:09:24.239Z,12.77
2019-02-20T14:11:52.408Z,10.77
2019-02-20T14:14:20.689Z,10.20
2019-02-20T14:16:48.964Z,14.40
2019-02-20T14:19:17.053Z,9.53
2019-02-20T14:21:46.245Z,15.03
2019-02-20T14:24:14.338Z,10.90
2019-02-20T14:26:42.426Z,9.20
2019-02-20T14:29:10.680Z,8.17
2019-02-20T14:31:38.985Z,7.70
2019-02-20T14:34:07.172Z,9.63
2019-02-20T14:36:35.454Z,10.07
2019-02-20T14:39:05.075Z,8.70
2019-02-20T14:41:33.526Z,10.07
2019-02-20T14:44:02.031Z,7.67
2019-02-20T14:46:30.443Z,8.03
2019-02-20T14:48:58.622Z,8.17
2019-02-20T14:51:27.726Z,7.17
2019-02-20T14:53:55.922Z,9.10
2019-02-20T14:56:23.998Z,7.80
2019-02-20T14:58:52.092Z,5.63
2019-02-20T15:01:20.236Z,8.67
2019-02-20T15:03:48.272Z,6.77
2019-02-20T15:06:16.459Z,6.70
2019-02-20T15:08:44.937Z,7.03
2019-02-20T15:11:13.100Z,6.97
2019-02-20T15:13:41.358Z,9.20
2019-02-20T15:16:09.495Z,5.30
2019-02-20T15:18:37.645Z,6.97
2019-02-20T15:21:05.682Z,6.43
2019-02-20T15:23:34.493Z,10.53
2019-02-20T15:26:02.962Z,7.70
2019-02-20T15:28:31.057Z,6.77
2019-02-20T15:30:59.156Z,7.43
2019-02-20T15:33:27.368Z,9.70
2019-02-20T15:35:55.980Z,9.23
2019-02-20T15:38:24.167Z,7.60
2019-02-20T15:40:52.475Z,6.10
2019-02-20T15:43:21.037Z,6.80
2019-02-20T15:45:49.095Z,4.23
2019-02-20T15:48:23.081Z,6.80
2019-02-20T15:50:47.322Z,9.83
2019-02-20T15:53:15.437Z,8.00
2019-02-20T15:55:44.067Z,9.63
2019-02-20T15:58:12.273Z,6.93
2019-02-20T16:00:41.472Z,13.03
2019-02-20T16:03:09.752Z,10.83
2019-02-20T16:05:37.829Z,10.53
2019-02-20T16:08:07.303Z,11.63
2019-02-20T16:10:36.071Z,9.83
2019-02-20T16:13:06.198Z,10.50
2019-02-20T16:15:34.611Z,7.20
2019-02-20T16:18:04.506Z,19.13
2019-02-20T16:20:33.663Z,9.10
2019-02-20T16:23:01.803Z,9.43
2019-02-20T16:25:29.896Z,8.90
2019-02-20T16:27:58.084Z,12.50
2019-02-20T16:30:26.391Z,11.23
2019-02-20T16:32:54.819Z,7.23
2019-02-20T16:35:22.966Z,9.33
2019-02-20T16:37:51.042Z,10.87
2019-02-20T16:40:19.114Z,11.57
2019-02-20T16:42:47.201Z,9.97
2019-02-20T16:45:23.593Z,6.50
2019-02-20T16:47:52.181Z,7.07
2019-02-20T16:50:20.744Z,8.67
2019-02-20T16:52:48.957Z,11.50
2019-02-20T16:55:22.518Z,9.20
2019-02-20T16:57:55.918Z,9.23
2019-02-20T17:00:19.029Z,12.97
2019-02-20T17:02:47.193Z,9.60
2019-02-20T17:05:16.017Z,6.40
2019-02-20T17:07:45.157Z,12.83
2019-02-20T17:10:14.151Z,10.93
2019-02-20T17:12:42.261Z,10.33
2019-02-20T17:15:15.546Z,6.73
2019-02-20T17:17:43.921Z,12.83
2019-02-20T17:20:13.011Z,10.70
2019-02-20T17:22:41.044Z,8.03
2019-02-20T17:25:10.414Z,10.63
2019-02-20T17:27:38.513Z,9.53
2019-02-20T17:30:09.029Z,11.80
2019-02-20T17:32:37.296Z,11.03
2019-02-20T17:35:06.224Z,9.93
2019-02-20T17:37:34.296Z,10.87
2019-02-20T17:40:03.722Z,6.80
2019-02-20T17:42:31.781Z,12.07
2019-02-20T17:45:01.750Z,12.27
2019-02-20T17:47:29.828Z,9.43
2019-02-20T17:49:57.973Z,14.23
2019-02-20T17:52:26.056Z,12.50
2019-02-20T17:54:54.091Z,14.27
2019-02-20T17:57:22.546Z,13.30
2019-02-20T17:59:50.568Z,13.93
2019-02-20T18:02:18.697Z,10.87
2019-02-20T18:04:46.806Z,17.27
2019-02-20T18:07:16.676Z,19.00
2019-02-20T18:09:45.054Z,9.97
2019-02-20T18:12:13.169Z,11.20
2019-02-20T18:14:44.379Z,11.03
2019-02-20T18:17:12.477Z,10.33
2019-02-20T18:19:40.569Z,10.20
2019-02-20T18:22:08.777Z,12.03
2019-02-20T18:24:36.812Z,12.80
2019-02-20T18:27:04.939Z,8.03
2019-02-20T18:29:33.324Z,11.87
2019-02-20T18:32:01.408Z,10.17
2019-02-20T18:34:29.655Z,11.73
2019-02-20T18:36:57.794Z,12.87
2019-02-20T18:39:25.961Z,14.43
2019-02-20T18:41:54.098Z,12.37
2019-02-20T18:44:22.453Z,10.87
2019-02-20T18:46:50.574Z,11.53
2019-02-20T18:49:20.927Z,16.43
2019-02-20T18:51:48.663Z,10.43
2019-02-20T18:54:16.709Z,12.47
2019-02-20T18:56:45.033Z,12.03
2019-02-20T18:59:13.989Z,10.97
2019-02-20T19:01:42.060Z,8.97
2019-02-20T19:04:10.443Z,12.63
2019-02-20T19:06:38.645Z,13.07
2019-02-20T19:09:24.302Z,13.23
2019-02-20T19:12:58.887Z,14.33
2019-02-20T19:16:07.594Z,11.47
2019-02-20T19:19:14.718Z,14.27
2019-02-20T19:22:56.518Z,10.37
2019-02-20T19:26:35.721Z,13.37
2019-02-20T19:30:10.036Z,16.60
2019-02-20T19:33:10.866Z,14.00
2019-02-20T19:36:41.044Z,16.50
2019-02-20T19:39:35.304Z,14.27
2019-02-20T19:43:12.605Z,14.90
2019-02-20T19:46:08.038Z,13.13
2019-02-20T19:49:14.077Z,17.93
2019-02-20T19:52:15.996Z,12.27
2019-02-20T19:55:25.795Z,15.47
2019-02-20T19:58:41.640Z,14.30
2019-02-20T20:01:52.056Z,15.70
2019-02-20T20:04:53.411Z,17.60
2019-02-20T20:08:11.477Z,14.87
2019-02-20T20:11:20.212Z,14.87
2019-02-20T20:14:54.491Z,17.07
2019-02-20T20:18:21.890Z,16.83
2019-02-20T20:21:59.027Z,19.67
2019-02-20T20:25:07.849Z,17.50
2019-02-20T20:28:52.551Z,20.00
2019-02-20T20:31:55.843Z,20.37
2019-02-20T20:35:17.477Z,19.53
2019-02-20T20:38:19.995Z,17.60
2019-02-20T20:41:50.153Z,15.83
2019-02-20T20:45:18.710Z,17.13
2019-02-20T20:48:48.728Z,18.20
2019-02-20T20:52:15.691Z,14.53
2019-02-20T20:55:30.146Z,15.70
2019-02-20T20:58:42.298Z,17.93
2019-02-20T21:02:11.137Z,17.33
2019-02-20T21:05:37.442Z,14.10
2019-02-20T21:09:01.228Z,18.70
2019-02-20T21:12:10.393Z,21.60
2019-02-20T21:15:35.494Z,20.33
2019-02-20T21:18:52.671Z,19.40
2019-02-20T21:22:33.966Z,19.97
2019-02-20T21:25:54.030Z,18.47
2019-02-20T21:29:16.881Z,22.73
2019-02-20T21:32:52.423Z,17.63
2019-02-20T21:36:14.081Z,20.03
2019-02-20T21:39:51.319Z,19.10
2019-02-20T21:43:02.297Z,18.30
2019-02-20T21:46:13.682Z,16.70
2019-02-20T21:49:28.735Z,18.23
2019-02-20T21:53:05.769Z,19.17
2019-02-20T21:55:59.164Z,16.37
2019-02-20T21:59:21.217Z,22.23
2019-02-20T22:02:23.055Z,23.07
2019-02-20T22:05:44.279Z,15.97
2019-02-20T22:08:50.431Z,19.13
2019-02-20T22:12:04.118Z,20.30
2019-02-20T22:15:26.198Z,20.17
2019-02-20T22:18:38.976Z,23.13
2019-02-20T22:22:23.164Z,17.53
2019-02-20T22:25:35.954Z,24.83
2019-02-20T22:29:16.595Z,21.23
2019-02-20T22:32:51.322Z,20.17
2019-02-20T22:36:14.872Z,19.07
2019-02-20T22:39:21.863Z,19.13
2019-02-20T22:42:49.853Z,18.00
2019-02-20T22:46:05.410Z,19.03
2019-02-20T22:49:46.665Z,22.20
2019-02-20T22:52:30.901Z,19.63
2019-02-20T22:56:08.684Z,20.63
2019-02-20T22:59:30.333Z,21.30
2019-02-20T23:02:42.072Z,22.73
2019-02-20T23:06:10.500Z,19.93
2019-02-20T23:09:26.545Z,18.97
2019-02-20T23:12:52.257Z,16.00
2019-02-20T23:15:20.409Z,20.60
2019-02-20T23:17:48.598Z,17.27
2019-02-20T23:20:16.706Z,18.93
2019-02-20T23:22:45.768Z,21.93
2019-02-20T23:25:13.947Z,19.07
2019-02-20T23:27:42.202Z,20.43
2019-02-20T23:30:13.179Z,16.87
2019-02-20T23:32:43.037Z,19.33
2019-02-20T23:35:10.714Z,19.87
2019-02-20T23:37:38.787Z,18.53
2019-02-20T23:40:07.387Z,15.83
2019-02-20T23:42:35.524Z,17.63
2019-02-20T23:45:04.443Z,16.90
2019-02-20T23:47:33.544Z,20.60
2019-02-20T23:50:01.642Z,17.90
2019-02-20T23:52:29.779Z,20.90
2019-02-20T23:54:57.849Z,18.03
2019-02-20T23:57:26.266Z,18.00
2019-02-20T23:59:54.449Z,20.13
